sensor_id;sensor_type;location;lat;lon;timestamp;P1;durP1;ratioP1;P2;durP2;ratioP2
15712;SDS011;7957;51.608;6.916;2022-08-23T00:00:43;3.23;;;2.40;;
15712;SDS011;7957;51.608;6.916;2022-08-23T00:03:10;3.53;;;2.70;;
15712;SDS011;7957;51.608;6.916;2022-08-23T00:05:38;3.07;;;2.50;;
15712;SDS011;7957;51.608;6.916;2022-08-23T00:08:04;3.00;;;2.57;;
15712;SDS011;7957;51.608;6.916;2022-08-23T00:10:33;3.77;;;2.87;;
15712;SDS011;7957;51.608;6.916;2022-08-23T00:13:00;4.17;;;3.27;;
15712;SDS011;7957;51.608;6.916;2022-08-23T00:15:27;2.80;;;2.53;;
15712;SDS011;7957;51.608;6.916;2022-08-23T00:17:54;4.47;;;2.90;;
15712;SDS011;7957;51.608;6.916;2022-08-23T00:20:21;3.60;;;2.57;;
15712;SDS011;7957;51.608;6.916;2022-08-23T00:22:47;3.43;;;2.50;;
15712;SDS011;7957;51.608;6.916;2022-08-23T00:25:14;3.60;;;2.57;;
15712;SDS011;7957;51.608;6.916;2022-08-23T00:27:43;4.33;;;2.70;;
15712;SDS011;7957;51.608;6.916;2022-08-23T00:30:11;4.03;;;2.90;;
15712;SDS011;7957;51.608;6.916;2022-08-23T00:32:39;3.53;;;2.83;;
15712;SDS011;7957;51.608;6.916;2022-08-23T00:35:08;2.90;;;2.60;;
15712;SDS011;7957;51.608;6.916;2022-08-23T00:37:37;2.93;;;2.63;;
15712;SDS011;7957;51.608;6.916;2022-08-23T00:40:04;3.30;;;3.00;;
15712;SDS011;7957;51.608;6.916;2022-08-23T00:42:36;3.23;;;2.90;;
15712;SDS011;7957;51.608;6.916;2022-08-23T00:45:26;2.67;;;2.47;;
15712;SDS011;7957;51.608;6.916;2022-08-23T00:48:13;5.30;;;2.73;;
15712;SDS011;7957;51.608;6.916;2022-08-23T00:50:42;3.77;;;2.90;;
15712;SDS011;7957;51.608;6.916;2022-08-23T00:53:16;2.73;;;2.53;;
15712;SDS011;7957;51.608;6.916;2022-08-23T00:55:46;3.90;;;2.73;;
15712;SDS011;7957;51.608;6.916;2022-08-23T00:58:16;3.90;;;3.10;;
15712;SDS011;7957;51.608;6.916;2022-08-23T01:00:46;2.90;;;2.70;;
15712;SDS011;7957;51.608;6.916;2022-08-23T01:03:15;6.43;;;3.13;;
15712;SDS011;7957;51.608;6.916;2022-08-23T01:05:45;3.10;;;2.60;;
15712;SDS011;7957;51.608;6.916;2022-08-23T01:08:16;3.83;;;3.20;;
15712;SDS011;7957;51.608;6.916;2022-08-23T01:10:46;4.43;;;2.90;;
15712;SDS011;7957;51.608;6.916;2022-08-23T01:13:18;4.37;;;2.80;;
15712;SDS011;7957;51.608;6.916;2022-08-23T01:15:52;4.03;;;3.13;;
15712;SDS011;7957;51.608;6.916;2022-08-23T01:18:23;3.00;;;2.70;;
15712;SDS011;7957;51.608;6.916;2022-08-23T01:20:53;3.30;;;2.87;;
15712;SDS011;7957;51.608;6.916;2022-08-23T01:23:30;3.43;;;2.93;;
15712;SDS011;7957;51.608;6.916;2022-08-23T01:26:01;4.00;;;2.80;;
15712;SDS011;7957;51.608;6.916;2022-08-23T01:28:30;3.70;;;3.40;;
15712;SDS011;7957;51.608;6.916;2022-08-23T01:30:57;3.33;;;3.03;;
15712;SDS011;7957;51.608;6.916;2022-08-23T01:33:24;3.20;;;2.90;;
15712;SDS011;7957;51.608;6.916;2022-08-23T01:35:52;3.00;;;2.70;;
15712;SDS011;7957;51.608;6.916;2022-08-23T01:38:21;3.50;;;3.20;;
15712;SDS011;7957;51.608;6.916;2022-08-23T01:40:50;4.53;;;3.40;;
15712;SDS011;7957;51.608;6.916;2022-08-23T01:43:19;4.73;;;3.30;;
15712;SDS011;7957;51.608;6.916;2022-08-23T01:45:47;3.43;;;3.03;;
15712;SDS011;7957;51.608;6.916;2022-08-23T01:48:15;3.30;;;2.83;;
15712;SDS011;7957;51.608;6.916;2022-08-23T01:50:43;3.47;;;2.77;;
15712;SDS011;7957;51.608;6.916;2022-08-23T01:53:10;3.10;;;2.80;;
15712;SDS011;7957;51.608;6.916;2022-08-23T01:55:38;4.07;;;2.90;;
15712;SDS011;7957;51.608;6.916;2022-08-23T01:58:07;3.17;;;2.70;;
15712;SDS011;7957;51.608;6.916;2022-08-23T02:00:35;4.23;;;3.17;;
15712;SDS011;7957;51.608;6.916;2022-08-23T02:03:04;4.30;;;3.23;;
15712;SDS011;7957;51.608;6.916;2022-08-23T02:05:32;3.67;;;3.30;;
15712;SDS011;7957;51.608;6.916;2022-08-23T02:08:01;3.90;;;3.40;;
15712;SDS011;7957;51.608;6.916;2022-08-23T02:10:42;5.27;;;3.40;;
15712;SDS011;7957;51.608;6.916;2022-08-23T02:13:10;4.60;;;3.17;;
15712;SDS011;7957;51.608;6.916;2022-08-23T02:15:40;5.00;;;3.43;;
15712;SDS011;7957;51.608;6.916;2022-08-23T02:18:08;4.83;;;3.23;;
15712;SDS011;7957;51.608;6.916;2022-08-23T02:20:35;6.73;;;3.17;;
15712;SDS011;7957;51.608;6.916;2022-08-23T02:23:04;5.53;;;3.67;;
15712;SDS011;7957;51.608;6.916;2022-08-23T02:25:31;3.90;;;2.83;;
15712;SDS011;7957;51.608;6.916;2022-08-23T02:27:58;3.93;;;3.07;;
15712;SDS011;7957;51.608;6.916;2022-08-23T02:30:28;4.03;;;3.37;;
15712;SDS011;7957;51.608;6.916;2022-08-23T02:32:55;5.27;;;3.57;;
15712;SDS011;7957;51.608;6.916;2022-08-23T02:35:22;4.37;;;3.23;;
15712;SDS011;7957;51.608;6.916;2022-08-23T02:37:49;4.23;;;3.10;;
15712;SDS011;7957;51.608;6.916;2022-08-23T02:40:17;4.00;;;3.27;;
15712;SDS011;7957;51.608;6.916;2022-08-23T02:42:46;3.63;;;3.30;;
15712;SDS011;7957;51.608;6.916;2022-08-23T02:45:13;5.10;;;3.50;;
15712;SDS011;7957;51.608;6.916;2022-08-23T02:47:43;3.47;;;3.17;;
15712;SDS011;7957;51.608;6.916;2022-08-23T02:50:10;4.67;;;3.57;;
15712;SDS011;7957;51.608;6.916;2022-08-23T02:52:37;3.73;;;3.43;;
15712;SDS011;7957;51.608;6.916;2022-08-23T02:55:05;9.47;;;3.60;;
15712;SDS011;7957;51.608;6.916;2022-08-23T02:57:32;4.00;;;3.60;;
15712;SDS011;7957;51.608;6.916;2022-08-23T02:59:59;4.03;;;3.60;;
15712;SDS011;7957;51.608;6.916;2022-08-23T03:02:26;3.73;;;3.40;;
15712;SDS011;7957;51.608;6.916;2022-08-23T03:04:54;3.80;;;3.40;;
15712;SDS011;7957;51.608;6.916;2022-08-23T03:07:22;3.67;;;3.30;;
15712;SDS011;7957;51.608;6.916;2022-08-23T03:09:49;3.63;;;3.33;;
15712;SDS011;7957;51.608;6.916;2022-08-23T03:12:16;3.60;;;3.30;;
15712;SDS011;7957;51.608;6.916;2022-08-23T03:14:43;4.97;;;3.87;;
15712;SDS011;7957;51.608;6.916;2022-08-23T03:17:10;4.17;;;3.77;;
15712;SDS011;7957;51.608;6.916;2022-08-23T03:19:37;5.97;;;3.70;;
15712;SDS011;7957;51.608;6.916;2022-08-23T03:22:05;4.37;;;3.67;;
15712;SDS011;7957;51.608;6.916;2022-08-23T03:24:32;4.67;;;3.67;;
15712;SDS011;7957;51.608;6.916;2022-08-23T03:27:00;4.90;;;3.80;;
15712;SDS011;7957;51.608;6.916;2022-08-23T03:29:27;4.57;;;3.90;;
15712;SDS011;7957;51.608;6.916;2022-08-23T03:31:55;7.43;;;3.97;;
15712;SDS011;7957;51.608;6.916;2022-08-23T03:34:22;4.67;;;3.67;;
15712;SDS011;7957;51.608;6.916;2022-08-23T03:36:49;5.90;;;4.03;;
15712;SDS011;7957;51.608;6.916;2022-08-23T03:39:18;5.17;;;3.67;;
15712;SDS011;7957;51.608;6.916;2022-08-23T03:41:45;4.50;;;3.50;;
15712;SDS011;7957;51.608;6.916;2022-08-23T03:44:11;5.00;;;4.00;;
15712;SDS011;7957;51.608;6.916;2022-08-23T03:46:38;4.20;;;3.80;;
15712;SDS011;7957;51.608;6.916;2022-08-23T03:49:05;6.37;;;4.03;;
15712;SDS011;7957;51.608;6.916;2022-08-23T03:51:32;5.53;;;4.13;;
15712;SDS011;7957;51.608;6.916;2022-08-23T03:54:00;5.27;;;4.53;;
15712;SDS011;7957;51.608;6.916;2022-08-23T03:56:30;5.17;;;3.60;;
15712;SDS011;7957;51.608;6.916;2022-08-23T03:59:03;5.17;;;4.10;;
15712;SDS011;7957;51.608;6.916;2022-08-23T04:01:31;5.00;;;3.87;;
15712;SDS011;7957;51.608;6.916;2022-08-23T04:03:58;6.10;;;4.20;;
15712;SDS011;7957;51.608;6.916;2022-08-23T04:06:25;4.63;;;3.93;;
15712;SDS011;7957;51.608;6.916;2022-08-23T04:08:53;5.43;;;4.20;;
15712;SDS011;7957;51.608;6.916;2022-08-23T04:11:21;4.83;;;3.77;;
15712;SDS011;7957;51.608;6.916;2022-08-23T04:13:50;6.63;;;4.23;;
15712;SDS011;7957;51.608;6.916;2022-08-23T04:16:17;5.70;;;4.30;;
15712;SDS011;7957;51.608;6.916;2022-08-23T04:18:44;5.57;;;4.13;;
15712;SDS011;7957;51.608;6.916;2022-08-23T04:21:13;4.80;;;4.03;;
15712;SDS011;7957;51.608;6.916;2022-08-23T04:23:42;4.90;;;4.13;;
15712;SDS011;7957;51.608;6.916;2022-08-23T04:26:09;5.17;;;4.33;;
15712;SDS011;7957;51.608;6.916;2022-08-23T04:28:36;5.77;;;4.70;;
15712;SDS011;7957;51.608;6.916;2022-08-23T04:31:04;6.00;;;4.40;;
15712;SDS011;7957;51.608;6.916;2022-08-23T04:33:32;6.17;;;4.50;;
15712;SDS011;7957;51.608;6.916;2022-08-23T04:36:00;5.67;;;4.60;;
15712;SDS011;7957;51.608;6.916;2022-08-23T04:38:27;6.20;;;4.73;;
15712;SDS011;7957;51.608;6.916;2022-08-23T04:40:55;5.17;;;4.70;;
15712;SDS011;7957;51.608;6.916;2022-08-23T04:43:39;7.43;;;4.23;;
15712;SDS011;7957;51.608;6.916;2022-08-23T04:46:09;6.60;;;4.63;;
15712;SDS011;7957;51.608;6.916;2022-08-23T04:48:38;7.07;;;4.47;;
15712;SDS011;7957;51.608;6.916;2022-08-23T04:51:05;6.90;;;4.80;;
15712;SDS011;7957;51.608;6.916;2022-08-23T04:53:32;7.50;;;4.77;;
15712;SDS011;7957;51.608;6.916;2022-08-23T04:56:00;7.93;;;4.50;;
15712;SDS011;7957;51.608;6.916;2022-08-23T04:58:27;4.93;;;4.40;;
15712;SDS011;7957;51.608;6.916;2022-08-23T05:00:56;6.63;;;4.70;;
15712;SDS011;7957;51.608;6.916;2022-08-23T05:03:25;5.47;;;4.60;;
15712;SDS011;7957;51.608;6.916;2022-08-23T05:05:54;5.30;;;4.70;;
15712;SDS011;7957;51.608;6.916;2022-08-23T05:08:22;6.30;;;4.70;;
15712;SDS011;7957;51.608;6.916;2022-08-23T05:10:49;7.73;;;4.83;;
15712;SDS011;7957;51.608;6.916;2022-08-23T05:13:16;6.47;;;4.73;;
15712;SDS011;7957;51.608;6.916;2022-08-23T05:15:43;7.80;;;4.80;;
15712;SDS011;7957;51.608;6.916;2022-08-23T05:18:10;10.10;;;5.27;;
15712;SDS011;7957;51.608;6.916;2022-08-23T05:20:38;7.33;;;5.10;;
15712;SDS011;7957;51.608;6.916;2022-08-23T05:23:05;6.13;;;5.00;;
15712;SDS011;7957;51.608;6.916;2022-08-23T05:25:32;9.40;;;5.13;;
15712;SDS011;7957;51.608;6.916;2022-08-23T05:28:15;10.20;;;5.67;;
15712;SDS011;7957;51.608;6.916;2022-08-23T05:30:43;7.10;;;5.20;;
15712;SDS011;7957;51.608;6.916;2022-08-23T05:33:11;8.63;;;5.13;;
15712;SDS011;7957;51.608;6.916;2022-08-23T05:35:39;9.77;;;5.13;;
15712;SDS011;7957;51.608;6.916;2022-08-23T05:38:06;6.97;;;5.27;;
15712;SDS011;7957;51.608;6.916;2022-08-23T05:40:33;8.27;;;5.47;;
15712;SDS011;7957;51.608;6.916;2022-08-23T05:43:00;7.43;;;5.43;;
15712;SDS011;7957;51.608;6.916;2022-08-23T05:45:27;8.33;;;5.67;;
15712;SDS011;7957;51.608;6.916;2022-08-23T05:47:54;7.67;;;6.23;;
15712;SDS011;7957;51.608;6.916;2022-08-23T05:50:21;6.87;;;5.37;;
15712;SDS011;7957;51.608;6.916;2022-08-23T05:52:49;8.17;;;5.50;;
15712;SDS011;7957;51.608;6.916;2022-08-23T05:55:16;11.43;;;4.93;;
15712;SDS011;7957;51.608;6.916;2022-08-23T05:57:43;8.23;;;5.17;;
15712;SDS011;7957;51.608;6.916;2022-08-23T06:00:10;8.47;;;5.63;;
15712;SDS011;7957;51.608;6.916;2022-08-23T06:02:39;6.93;;;5.20;;
15712;SDS011;7957;51.608;6.916;2022-08-23T06:05:06;5.93;;;5.07;;
15712;SDS011;7957;51.608;6.916;2022-08-23T06:07:34;9.23;;;5.20;;
15712;SDS011;7957;51.608;6.916;2022-08-23T06:10:02;7.87;;;5.27;;
15712;SDS011;7957;51.608;6.916;2022-08-23T06:12:31;7.50;;;4.90;;
15712;SDS011;7957;51.608;6.916;2022-08-23T06:14:58;6.10;;;4.70;;
15712;SDS011;7957;51.608;6.916;2022-08-23T06:17:27;5.77;;;4.53;;
15712;SDS011;7957;51.608;6.916;2022-08-23T06:19:54;5.73;;;4.60;;
15712;SDS011;7957;51.608;6.916;2022-08-23T06:22:21;7.03;;;4.83;;
15712;SDS011;7957;51.608;6.916;2022-08-23T06:24:48;4.90;;;4.27;;
15712;SDS011;7957;51.608;6.916;2022-08-23T06:27:19;5.83;;;4.30;;
15712;SDS011;7957;51.608;6.916;2022-08-23T06:29:47;5.47;;;4.80;;
15712;SDS011;7957;51.608;6.916;2022-08-23T06:32:14;6.03;;;4.63;;
15712;SDS011;7957;51.608;6.916;2022-08-23T06:34:41;7.43;;;4.47;;
15712;SDS011;7957;51.608;6.916;2022-08-23T06:37:08;4.53;;;4.10;;
15712;SDS011;7957;51.608;6.916;2022-08-23T06:39:37;6.50;;;4.33;;
15712;SDS011;7957;51.608;6.916;2022-08-23T06:42:05;5.70;;;4.20;;
15712;SDS011;7957;51.608;6.916;2022-08-23T06:44:35;4.27;;;3.87;;
15712;SDS011;7957;51.608;6.916;2022-08-23T06:47:02;5.50;;;3.97;;
15712;SDS011;7957;51.608;6.916;2022-08-23T06:49:30;8.43;;;4.23;;
15712;SDS011;7957;51.608;6.916;2022-08-23T06:51:58;6.80;;;4.30;;
15712;SDS011;7957;51.608;6.916;2022-08-23T06:54:28;5.07;;;3.93;;
15712;SDS011;7957;51.608;6.916;2022-08-23T06:56:57;4.83;;;4.20;;
15712;SDS011;7957;51.608;6.916;2022-08-23T06:59:24;6.33;;;4.03;;
15712;SDS011;7957;51.608;6.916;2022-08-23T07:01:53;5.57;;;3.90;;
15712;SDS011;7957;51.608;6.916;2022-08-23T07:04:23;5.07;;;3.87;;
15712;SDS011;7957;51.608;6.916;2022-08-23T07:06:51;5.37;;;3.70;;
15712;SDS011;7957;51.608;6.916;2022-08-23T07:09:18;4.23;;;3.83;;
15712;SDS011;7957;51.608;6.916;2022-08-23T07:11:45;4.60;;;3.70;;
15712;SDS011;7957;51.608;6.916;2022-08-23T07:14:12;5.20;;;3.90;;
15712;SDS011;7957;51.608;6.916;2022-08-23T07:16:41;5.10;;;3.70;;
15712;SDS011;7957;51.608;6.916;2022-08-23T07:19:11;4.67;;;3.90;;
15712;SDS011;7957;51.608;6.916;2022-08-23T07:21:38;4.07;;;3.50;;
15712;SDS011;7957;51.608;6.916;2022-08-23T07:24:05;6.30;;;3.73;;
15712;SDS011;7957;51.608;6.916;2022-08-23T07:26:33;4.10;;;3.63;;
15712;SDS011;7957;51.608;6.916;2022-08-23T07:29:01;4.00;;;3.37;;
15712;SDS011;7957;51.608;6.916;2022-08-23T07:31:31;6.60;;;3.80;;
15712;SDS011;7957;51.608;6.916;2022-08-23T07:34:00;5.03;;;3.40;;
15712;SDS011;7957;51.608;6.916;2022-08-23T07:36:30;3.93;;;3.53;;
15712;SDS011;7957;51.608;6.916;2022-08-23T07:38:59;5.43;;;3.87;;
15712;SDS011;7957;51.608;6.916;2022-08-23T07:41:27;4.57;;;3.57;;
15712;SDS011;7957;51.608;6.916;2022-08-23T07:43:56;5.20;;;3.60;;
15712;SDS011;7957;51.608;6.916;2022-08-23T07:46:25;5.43;;;3.70;;
15712;SDS011;7957;51.608;6.916;2022-08-23T07:48:53;5.80;;;3.77;;
15712;SDS011;7957;51.608;6.916;2022-08-23T07:51:22;4.50;;;3.73;;
15712;SDS011;7957;51.608;6.916;2022-08-23T07:53:51;8.97;;;4.57;;
15712;SDS011;7957;51.608;6.916;2022-08-23T07:56:20;11.13;;;5.13;;
15712;SDS011;7957;51.608;6.916;2022-08-23T07:58:47;9.97;;;5.20;;
15712;SDS011;7957;51.608;6.916;2022-08-23T08:01:14;11.50;;;4.80;;
15712;SDS011;7957;51.608;6.916;2022-08-23T08:03:42;12.77;;;5.20;;
15712;SDS011;7957;51.608;6.916;2022-08-23T08:06:11;13.07;;;5.13;;
15712;SDS011;7957;51.608;6.916;2022-08-23T08:08:40;8.10;;;5.40;;
15712;SDS011;7957;51.608;6.916;2022-08-23T08:11:10;13.90;;;6.00;;
15712;SDS011;7957;51.608;6.916;2022-08-23T08:13:39;11.57;;;7.63;;
15712;SDS011;7957;51.608;6.916;2022-08-23T08:16:07;11.30;;;6.53;;
15712;SDS011;7957;51.608;6.916;2022-08-23T08:18:35;13.80;;;6.23;;
15712;SDS011;7957;51.608;6.916;2022-08-23T08:21:02;17.37;;;6.50;;
15712;SDS011;7957;51.608;6.916;2022-08-23T08:23:29;15.57;;;6.40;;
15712;SDS011;7957;51.608;6.916;2022-08-23T08:25:59;19.17;;;5.97;;
15712;SDS011;7957;51.608;6.916;2022-08-23T08:28:29;14.00;;;6.13;;
15712;SDS011;7957;51.608;6.916;2022-08-23T08:30:56;11.47;;;5.90;;
15712;SDS011;7957;51.608;6.916;2022-08-23T08:33:23;14.57;;;6.57;;
15712;SDS011;7957;51.608;6.916;2022-08-23T08:35:51;11.27;;;5.90;;
15712;SDS011;7957;51.608;6.916;2022-08-23T08:38:18;9.43;;;5.93;;
15712;SDS011;7957;51.608;6.916;2022-08-23T08:40:45;13.13;;;6.30;;
15712;SDS011;7957;51.608;6.916;2022-08-23T08:43:18;13.63;;;6.20;;
15712;SDS011;7957;51.608;6.916;2022-08-23T08:45:58;11.57;;;6.47;;
15712;SDS011;7957;51.608;6.916;2022-08-23T08:48:37;16.87;;;6.60;;
15712;SDS011;7957;51.608;6.916;2022-08-23T08:51:10;13.87;;;6.27;;
15712;SDS011;7957;51.608;6.916;2022-08-23T08:53:52;9.60;;;5.43;;
15712;SDS011;7957;51.608;6.916;2022-08-23T08:56:22;13.83;;;6.43;;
15712;SDS011;7957;51.608;6.916;2022-08-23T08:58:53;12.50;;;6.47;;
15712;SDS011;7957;51.608;6.916;2022-08-23T09:01:25;15.37;;;6.13;;
15712;SDS011;7957;51.608;6.916;2022-08-23T09:03:55;16.47;;;6.37;;
15712;SDS011;7957;51.608;6.916;2022-08-23T09:06:23;14.20;;;6.40;;
15712;SDS011;7957;51.608;6.916;2022-08-23T09:08:58;13.30;;;6.40;;
15712;SDS011;7957;51.608;6.916;2022-08-23T09:11:41;16.20;;;6.83;;
15712;SDS011;7957;51.608;6.916;2022-08-23T09:14:28;14.00;;;7.07;;
15712;SDS011;7957;51.608;6.916;2022-08-23T09:17:12;14.90;;;6.80;;
15712;SDS011;7957;51.608;6.916;2022-08-23T09:19:45;13.90;;;6.20;;
15712;SDS011;7957;51.608;6.916;2022-08-23T09:22:17;10.10;;;6.07;;
15712;SDS011;7957;51.608;6.916;2022-08-23T09:24:49;10.90;;;5.70;;
15712;SDS011;7957;51.608;6.916;2022-08-23T09:27:16;11.93;;;6.03;;
15712;SDS011;7957;51.608;6.916;2022-08-23T09:29:50;8.10;;;5.30;;
15712;SDS011;7957;51.608;6.916;2022-08-23T09:32:26;12.63;;;5.80;;
15712;SDS011;7957;51.608;6.916;2022-08-23T09:35:10;13.47;;;5.73;;
15712;SDS011;7957;51.608;6.916;2022-08-23T09:37:47;9.73;;;5.77;;
15712;SDS011;7957;51.608;6.916;2022-08-23T09:40:25;8.40;;;5.40;;
15712;SDS011;7957;51.608;6.916;2022-08-23T09:43:01;10.30;;;5.73;;
15712;SDS011;7957;51.608;6.916;2022-08-23T09:45:33;8.67;;;5.10;;
15712;SDS011;7957;51.608;6.916;2022-08-23T09:48:03;10.57;;;5.07;;
15712;SDS011;7957;51.608;6.916;2022-08-23T09:50:31;9.87;;;4.97;;
15712;SDS011;7957;51.608;6.916;2022-08-23T09:53:05;8.77;;;5.17;;
15712;SDS011;7957;51.608;6.916;2022-08-23T09:55:35;11.23;;;5.50;;
15712;SDS011;7957;51.608;6.916;2022-08-23T09:58:04;9.97;;;5.10;;
15712;SDS011;7957;51.608;6.916;2022-08-23T10:00:42;9.57;;;4.57;;
15712;SDS011;7957;51.608;6.916;2022-08-23T10:03:22;11.13;;;5.00;;
15712;SDS011;7957;51.608;6.916;2022-08-23T10:05:51;9.07;;;5.50;;
15712;SDS011;7957;51.608;6.916;2022-08-23T10:08:24;11.40;;;5.23;;
15712;SDS011;7957;51.608;6.916;2022-08-23T10:10:54;7.70;;;4.77;;
15712;SDS011;7957;51.608;6.916;2022-08-23T10:13:24;7.80;;;5.30;;
15712;SDS011;7957;51.608;6.916;2022-08-23T10:15:53;7.93;;;4.67;;
15712;SDS011;7957;51.608;6.916;2022-08-23T10:18:31;7.90;;;5.50;;
15712;SDS011;7957;51.608;6.916;2022-08-23T10:21:06;8.93;;;5.30;;
15712;SDS011;7957;51.608;6.916;2022-08-23T10:23:42;9.27;;;4.97;;
15712;SDS011;7957;51.608;6.916;2022-08-23T10:26:15;13.13;;;5.23;;
15712;SDS011;7957;51.608;6.916;2022-08-23T10:28:53;6.93;;;5.13;;
15712;SDS011;7957;51.608;6.916;2022-08-23T10:31:45;9.33;;;5.30;;
15712;SDS011;7957;51.608;6.916;2022-08-23T10:34:26;8.47;;;5.50;;
15712;SDS011;7957;51.608;6.916;2022-08-23T10:37:13;9.60;;;5.50;;
15712;SDS011;7957;51.608;6.916;2022-08-23T10:39:53;8.97;;;5.30;;
15712;SDS011;7957;51.608;6.916;2022-08-23T10:42:26;12.10;;;5.33;;
15712;SDS011;7957;51.608;6.916;2022-08-23T10:45:05;11.67;;;5.60;;
15712;SDS011;7957;51.608;6.916;2022-08-23T10:47:50;8.67;;;4.87;;
15712;SDS011;7957;51.608;6.916;2022-08-23T10:50:27;7.50;;;5.20;;
15712;SDS011;7957;51.608;6.916;2022-08-23T10:53:00;8.17;;;5.10;;
15712;SDS011;7957;51.608;6.916;2022-08-23T10:55:36;8.33;;;5.20;;
15712;SDS011;7957;51.608;6.916;2022-08-23T10:58:20;9.23;;;4.97;;
15712;SDS011;7957;51.608;6.916;2022-08-23T11:00:49;8.83;;;4.70;;
15712;SDS011;7957;51.608;6.916;2022-08-23T11:03:20;7.50;;;4.40;;
15712;SDS011;7957;51.608;6.916;2022-08-23T11:08:58;6.90;;;4.30;;
15712;SDS011;7957;51.608;6.916;2022-08-23T11:11:37;8.90;;;4.60;;
15712;SDS011;7957;51.608;6.916;2022-08-23T11:14:08;7.20;;;4.00;;
15712;SDS011;7957;51.608;6.916;2022-08-23T11:16:37;5.63;;;3.87;;
15712;SDS011;7957;51.608;6.916;2022-08-23T11:19:10;6.37;;;4.20;;
15712;SDS011;7957;51.608;6.916;2022-08-23T11:21:43;7.03;;;4.60;;
15712;SDS011;7957;51.608;6.916;2022-08-23T11:24:34;11.27;;;5.03;;
15712;SDS011;7957;51.608;6.916;2022-08-23T11:27:29;13.65;;;4.53;;
15712;SDS011;7957;51.608;6.916;2022-08-23T11:29:58;10.20;;;4.43;;
15712;SDS011;7957;51.608;6.916;2022-08-23T11:33:07;6.88;;;4.15;;
15712;SDS011;7957;51.608;6.916;2022-08-23T11:35:40;8.48;;;4.20;;
15712;SDS011;7957;51.608;6.916;2022-08-23T11:38:11;8.07;;;3.88;;
15712;SDS011;7957;51.608;6.916;2022-08-23T11:40:40;9.15;;;4.70;;
15712;SDS011;7957;51.608;6.916;2022-08-23T11:43:26;7.50;;;4.40;;
15712;SDS011;7957;51.608;6.916;2022-08-23T11:48:59;7.75;;;4.47;;
15712;SDS011;7957;51.608;6.916;2022-08-23T11:51:49;9.75;;;4.35;;
15712;SDS011;7957;51.608;6.916;2022-08-23T11:54:39;8.57;;;4.40;;
15712;SDS011;7957;51.608;6.916;2022-08-23T11:57:17;6.68;;;4.10;;
15712;SDS011;7957;51.608;6.916;2022-08-23T12:00:00;9.80;;;4.22;;
15712;SDS011;7957;51.608;6.916;2022-08-23T12:05:27;8.85;;;4.15;;
15712;SDS011;7957;51.608;6.916;2022-08-23T12:08:28;7.32;;;3.92;;
15712;SDS011;7957;51.608;6.916;2022-08-23T12:11:12;5.35;;;3.90;;
15712;SDS011;7957;51.608;6.916;2022-08-23T12:13:45;8.52;;;4.45;;
15712;SDS011;7957;51.608;6.916;2022-08-23T12:16:35;5.10;;;4.03;;
15712;SDS011;7957;51.608;6.916;2022-08-23T12:19:05;11.77;;;4.65;;
15712;SDS011;7957;51.608;6.916;2022-08-23T12:21:39;8.63;;;4.93;;
15712;SDS011;7957;51.608;6.916;2022-08-23T12:24:12;6.32;;;3.90;;
15712;SDS011;7957;51.608;6.916;2022-08-23T12:26:50;10.25;;;4.50;;
15712;SDS011;7957;51.608;6.916;2022-08-23T12:29:27;10.75;;;4.15;;
15712;SDS011;7957;51.608;6.916;2022-08-23T12:32:05;6.50;;;4.20;;
15712;SDS011;7957;51.608;6.916;2022-08-23T12:34:39;6.88;;;4.40;;
15712;SDS011;7957;51.608;6.916;2022-08-23T12:37:39;8.77;;;4.45;;
15712;SDS011;7957;51.608;6.916;2022-08-23T12:40:13;7.15;;;4.40;;
15712;SDS011;7957;51.608;6.916;2022-08-23T12:42:48;6.60;;;3.90;;
15712;SDS011;7957;51.608;6.916;2022-08-23T12:45:17;7.15;;;4.35;;
15712;SDS011;7957;51.608;6.916;2022-08-23T12:47:54;8.25;;;3.42;;
15712;SDS011;7957;51.608;6.916;2022-08-23T12:50:24;5.35;;;3.38;;
15712;SDS011;7957;51.608;6.916;2022-08-23T12:52:57;9.32;;;3.47;;
15712;SDS011;7957;51.608;6.916;2022-08-23T12:55:28;5.30;;;3.20;;
15712;SDS011;7957;51.608;6.916;2022-08-23T12:57:59;4.10;;;3.20;;
15712;SDS011;7957;51.608;6.916;2022-08-23T13:00:27;6.30;;;3.13;;
15712;SDS011;7957;51.608;6.916;2022-08-23T13:02:59;7.00;;;3.45;;
15712;SDS011;7957;51.608;6.916;2022-08-23T13:05:34;6.82;;;3.17;;
15712;SDS011;7957;51.608;6.916;2022-08-23T13:08:05;8.55;;;3.67;;
15712;SDS011;7957;51.608;6.916;2022-08-23T13:10:35;6.82;;;3.65;;
15712;SDS011;7957;51.608;6.916;2022-08-23T13:13:06;8.27;;;3.33;;
15712;SDS011;7957;51.608;6.916;2022-08-23T13:15:39;7.22;;;3.00;;
15712;SDS011;7957;51.608;6.916;2022-08-23T13:18:21;6.00;;;3.30;;
15712;SDS011;7957;51.608;6.916;2022-08-23T13:21:03;6.53;;;3.40;;
15712;SDS011;7957;51.608;6.916;2022-08-23T13:23:42;5.28;;;2.85;;
15712;SDS011;7957;51.608;6.916;2022-08-23T13:26:28;4.10;;;2.65;;
15712;SDS011;7957;51.608;6.916;2022-08-23T13:29:04;4.32;;;3.08;;
15712;SDS011;7957;51.608;6.916;2022-08-23T13:31:53;5.78;;;2.90;;
15712;SDS011;7957;51.608;6.916;2022-08-23T13:34:32;5.13;;;2.80;;
15712;SDS011;7957;51.608;6.916;2022-08-23T13:37:04;6.68;;;2.70;;
15712;SDS011;7957;51.608;6.916;2022-08-23T13:39:43;3.75;;;2.30;;
15712;SDS011;7957;51.608;6.916;2022-08-23T13:42:11;5.95;;;2.88;;
15712;SDS011;7957;51.608;6.916;2022-08-23T13:44:39;5.80;;;3.03;;
15712;SDS011;7957;51.608;6.916;2022-08-23T13:47:07;6.68;;;3.30;;
15712;SDS011;7957;51.608;6.916;2022-08-23T13:49:47;6.20;;;3.38;;
15712;SDS011;7957;51.608;6.916;2022-08-23T13:52:14;9.00;;;3.13;;
15712;SDS011;7957;51.608;6.916;2022-08-23T13:54:41;10.18;;;3.53;;
15712;SDS011;7957;51.608;6.916;2022-08-23T13:57:10;6.20;;;3.35;;
15712;SDS011;7957;51.608;6.916;2022-08-23T13:59:45;4.72;;;3.33;;
15712;SDS011;7957;51.608;6.916;2022-08-23T14:02:14;4.78;;;3.10;;
15712;SDS011;7957;51.608;6.916;2022-08-23T14:04:42;5.93;;;3.47;;
15712;SDS011;7957;51.608;6.916;2022-08-23T14:07:10;6.68;;;3.15;;
15712;SDS011;7957;51.608;6.916;2022-08-23T14:09:37;6.60;;;2.67;;
15712;SDS011;7957;51.608;6.916;2022-08-23T14:12:06;4.82;;;2.85;;
15712;SDS011;7957;51.608;6.916;2022-08-23T14:14:36;8.25;;;3.25;;
15712;SDS011;7957;51.608;6.916;2022-08-23T14:17:04;3.13;;;2.40;;
15712;SDS011;7957;51.608;6.916;2022-08-23T14:19:32;8.55;;;3.40;;
15712;SDS011;7957;51.608;6.916;2022-08-23T14:21:59;6.93;;;2.92;;
15712;SDS011;7957;51.608;6.916;2022-08-23T14:24:26;8.10;;;3.53;;
15712;SDS011;7957;51.608;6.916;2022-08-23T14:26:54;8.27;;;4.00;;
15712;SDS011;7957;51.608;6.916;2022-08-23T14:29:21;9.35;;;3.50;;
15712;SDS011;7957;51.608;6.916;2022-08-23T14:31:51;7.53;;;3.75;;
15712;SDS011;7957;51.608;6.916;2022-08-23T14:34:20;6.60;;;3.50;;
15712;SDS011;7957;51.608;6.916;2022-08-23T14:36:47;10.68;;;3.55;;
15712;SDS011;7957;51.608;6.916;2022-08-23T14:39:15;6.17;;;3.73;;
15712;SDS011;7957;51.608;6.916;2022-08-23T14:41:42;10.50;;;4.07;;
15712;SDS011;7957;51.608;6.916;2022-08-23T14:44:09;9.18;;;3.80;;
15712;SDS011;7957;51.608;6.916;2022-08-23T14:46:37;7.75;;;4.10;;
15712;SDS011;7957;51.608;6.916;2022-08-23T14:49:04;9.13;;;3.70;;
15712;SDS011;7957;51.608;6.916;2022-08-23T14:51:33;9.15;;;3.65;;
15712;SDS011;7957;51.608;6.916;2022-08-23T14:54:04;7.87;;;3.40;;
15712;SDS011;7957;51.608;6.916;2022-08-23T14:56:32;6.90;;;3.42;;
15712;SDS011;7957;51.608;6.916;2022-08-23T14:58:59;7.20;;;3.40;;
15712;SDS011;7957;51.608;6.916;2022-08-23T15:01:26;5.82;;;3.40;;
15712;SDS011;7957;51.608;6.916;2022-08-23T15:03:53;6.35;;;2.95;;
15712;SDS011;7957;51.608;6.916;2022-08-23T15:06:20;4.60;;;2.90;;
15712;SDS011;7957;51.608;6.916;2022-08-23T15:08:48;5.70;;;3.45;;
15712;SDS011;7957;51.608;6.916;2022-08-23T15:11:15;7.95;;;2.88;;
15712;SDS011;7957;51.608;6.916;2022-08-23T15:13:42;6.70;;;3.10;;
15712;SDS011;7957;51.608;6.916;2022-08-23T15:16:11;7.80;;;3.05;;
15712;SDS011;7957;51.608;6.916;2022-08-23T15:18:42;8.30;;;3.20;;
15712;SDS011;7957;51.608;6.916;2022-08-23T15:21:11;7.07;;;3.30;;
15712;SDS011;7957;51.608;6.916;2022-08-23T15:23:39;4.97;;;3.20;;
15712;SDS011;7957;51.608;6.916;2022-08-23T15:26:07;4.45;;;3.03;;
15712;SDS011;7957;51.608;6.916;2022-08-23T15:28:34;5.68;;;3.03;;
15712;SDS011;7957;51.608;6.916;2022-08-23T15:31:01;6.43;;;3.43;;